Gaschem Phoenix — ELUO6 — position and weather

sailwx.info

Track history (hours):
 
Tides and Currents Weather Stations Pressure Air Temp Water Temp Dewpoint Dewpoint Depression Visibility Wind Speed Wind Dir Waves Ship Positions

Gaschem Phoenix

Last reported at 2015-Feb-27 12:33 UTC. Time now 2015-Feb-27 22:43 UTC.
Position N 32°04' E 119°56'.

Length 100 m; draft 5.9 m.

Type: Ship. MMSI: 636090235.

Date/timePositionNaut miles runAvg speedWind from/ knotsBaromVisibWave heightAir tempDewpointWater temp
2015-Feb-27 12:33N 32°04' E 119°56'1010.5
2015-Feb-27 11:33N 31°57' E 120°05'9 9.2
2015-Feb-27 10:33N 31°57' E 120°16'1111.0
2015-Feb-27 09:33N 32°04' E 120°27'9 9.3
2015-Feb-27 08:33N 32°00' E 120°37'1110.5
2015-Feb-27 07:33N 31°60' E 120°49'1110.8
2015-Feb-27 06:33N 31°50' E 120°54'1010.2
2015-Feb-27 05:33N 31°45' E 121°05'1111.1
2015-Feb-27 04:33N 31°38' E 121°15'1211.5
2015-Feb-27 03:33N 31°30' E 121°25'9 8.9
2015-Feb-27 02:33N 31°24' E 121°33'10 9.7
2015-Feb-27 01:33N 31°19' E 121°42'1312.6
2015-Feb-27 00:33N 31°10' E 121°52'1212.0
2015-Feb-26 23:33N 31°04' E 122°04'1010.2
2015-Feb-26 22:33N 31°03' E 122°16'9 8.6
2015-Feb-26 21:33N 31°01' E 122°26'  
2015-Feb-22 14:24N 35°04' E 139°43'7 8.4
2015-Feb-22 13:33N 35°11' E 139°46'1110.9
2015-Feb-22 12:34N 35°21' E 139°42'1211.8
2015-Feb-22 11:34N 35°30' E 139°52'8 0.6
2015-Feb-21 22:33N 35°31' E 140°02'8 8.2
2015-Feb-21 21:33N 35°29' E 139°52'1212.5
2015-Feb-21 20:33N 35°19' E 139°44'1211.6
2015-Feb-21 19:33N 35°07' E 139°45'14 4.2
2015-Feb-21 16:20N 35°00' E 139°31'  
Track history (hours):
 
Tides and Currents Weather Stations Pressure Air Temp Water Temp Dewpoint Dewpoint Depression Visibility Wind Speed Wind Dir Waves Ship Positions

Gaschem Phoenix

Last reported at 2015-Feb-27 12:33 UTC. Time now 2015-Feb-27 22:43 UTC.
Position N 32°04' E 119°56'.

Length 100 m; draft 5.9 m.

Type: Ship. MMSI: 636090235.

Date/timePositionNaut miles runAvg speedWind from/ knotsBaromVisibWave heightAir tempDewpointWater temp
2015-Feb-27 12:33N 32°04' E 119°56'1010.5
2015-Feb-27 11:33N 31°57' E 120°05'9 9.2
2015-Feb-27 10:33N 31°57' E 120°16'1111.0
2015-Feb-27 09:33N 32°04' E 120°27'9 9.3
2015-Feb-27 08:33N 32°00' E 120°37'1110.5
2015-Feb-27 07:33N 31°60' E 120°49'1110.8
2015-Feb-27 06:33N 31°50' E 120°54'1010.2
2015-Feb-27 05:33N 31°45' E 121°05'1111.1
2015-Feb-27 04:33N 31°38' E 121°15'1211.5
2015-Feb-27 03:33N 31°30' E 121°25'9 8.9
2015-Feb-27 02:33N 31°24' E 121°33'10 9.7
2015-Feb-27 01:33N 31°19' E 121°42'1312.6
2015-Feb-27 00:33N 31°10' E 121°52'1212.0
2015-Feb-26 23:33N 31°04' E 122°04'1010.2
2015-Feb-26 22:33N 31°03' E 122°16'9 8.6
2015-Feb-26 21:33N 31°01' E 122°26'  
2015-Feb-22 14:24N 35°04' E 139°43'7 8.4
2015-Feb-22 13:33N 35°11' E 139°46'1110.9
2015-Feb-22 12:34N 35°21' E 139°42'1211.8
2015-Feb-22 11:34N 35°30' E 139°52'8 0.6
2015-Feb-21 22:33N 35°31' E 140°02'8 8.2
2015-Feb-21 21:33N 35°29' E 139°52'1212.5
2015-Feb-21 20:33N 35°19' E 139°44'1211.6
2015-Feb-21 19:33N 35°07' E 139°45'14 4.2
2015-Feb-21 16:20N 35°00' E 139°31'  

Dump ship's entire track history